Weather at Brisbane International Airport

Public forecast

Using degrees Celsius for public forecast. Weather courtesy of forecast.io.

Current aviation weather report (METAR) for Brisbane International Airport

2024/06/19 03:30 (retrieved 15 minutes ago)

YBBN 190330Z 26006KT 210V300 CAVOK 21/00 Q1015 RF000/0000

Closest aviation forecast (TAF) to Brisbane International Airport

Forecast is more than 6 hours old.

Closest forecast is Touho Airport, 773.7 nm (1,432.9 km) ENE.

2024/06/18 18:00 (retrieved 10 hours ago)

TAF NWWU 181700Z 1818/1918 22006KT 9999 FEW030 SCT060